sensor_id;sensor_type;location;lat;lon;timestamp;P1;durP1;ratioP1;P2;durP2;ratioP2
11473;SDS011;5793;52.238;13.438;2023-02-22T00:00:42;23.07;;;4.93;;
11473;SDS011;5793;52.238;13.438;2023-02-22T00:03:14;22.00;;;5.20;;
11473;SDS011;5793;52.238;13.438;2023-02-22T00:05:43;26.37;;;6.33;;
11473;SDS011;5793;52.238;13.438;2023-02-22T00:08:13;19.13;;;5.63;;
11473;SDS011;5793;52.238;13.438;2023-02-22T00:10:42;18.07;;;4.83;;
11473;SDS011;5793;52.238;13.438;2023-02-22T00:13:10;21.80;;;5.73;;
11473;SDS011;5793;52.238;13.438;2023-02-22T00:15:40;28.57;;;5.60;;
11473;SDS011;5793;52.238;13.438;2023-02-22T00:18:10;19.70;;;5.20;;
11473;SDS011;5793;52.238;13.438;2023-02-22T00:20:39;21.13;;;4.90;;
11473;SDS011;5793;52.238;13.438;2023-02-22T00:23:08;24.03;;;5.23;;
11473;SDS011;5793;52.238;13.438;2023-02-22T00:25:40;22.37;;;5.30;;
11473;SDS011;5793;52.238;13.438;2023-02-22T00:28:08;21.47;;;4.83;;
11473;SDS011;5793;52.238;13.438;2023-02-22T00:30:37;23.53;;;5.67;;
11473;SDS011;5793;52.238;13.438;2023-02-22T00:33:09;21.20;;;5.30;;
11473;SDS011;5793;52.238;13.438;2023-02-22T00:35:37;24.10;;;5.33;;
11473;SDS011;5793;52.238;13.438;2023-02-22T00:38:06;22.63;;;5.00;;
11473;SDS011;5793;52.238;13.438;2023-02-22T00:40:34;20.07;;;4.93;;
11473;SDS011;5793;52.238;13.438;2023-02-22T00:43:03;18.07;;;5.17;;
11473;SDS011;5793;52.238;13.438;2023-02-22T00:45:33;18.00;;;4.70;;
11473;SDS011;5793;52.238;13.438;2023-02-22T00:48:04;24.60;;;5.57;;
11473;SDS011;5793;52.238;13.438;2023-02-22T00:50:33;26.33;;;5.33;;
11473;SDS011;5793;52.238;13.438;2023-02-22T00:53:02;22.57;;;5.70;;
11473;SDS011;5793;52.238;13.438;2023-02-22T00:55:31;29.07;;;5.57;;
11473;SDS011;5793;52.238;13.438;2023-02-22T00:58:01;28.80;;;5.37;;
11473;SDS011;5793;52.238;13.438;2023-02-22T01:00:31;28.50;;;5.80;;
11473;SDS011;5793;52.238;13.438;2023-02-22T01:03:00;26.77;;;5.23;;
11473;SDS011;5793;52.238;13.438;2023-02-22T01:05:29;16.77;;;4.97;;
11473;SDS011;5793;52.238;13.438;2023-02-22T01:07:59;24.30;;;4.70;;
11473;SDS011;5793;52.238;13.438;2023-02-22T01:10:28;29.17;;;5.60;;
11473;SDS011;5793;52.238;13.438;2023-02-22T01:12:57;24.57;;;5.43;;
11473;SDS011;5793;52.238;13.438;2023-02-22T01:15:27;23.97;;;4.70;;
11473;SDS011;5793;52.238;13.438;2023-02-22T01:17:56;19.70;;;4.27;;
11473;SDS011;5793;52.238;13.438;2023-02-22T01:20:25;20.40;;;4.90;;
11473;SDS011;5793;52.238;13.438;2023-02-22T01:22:56;23.97;;;5.30;;
11473;SDS011;5793;52.238;13.438;2023-02-22T01:25:26;27.73;;;5.57;;
11473;SDS011;5793;52.238;13.438;2023-02-22T01:27:55;18.47;;;5.10;;
11473;SDS011;5793;52.238;13.438;2023-02-22T01:30:25;22.63;;;5.50;;
11473;SDS011;5793;52.238;13.438;2023-02-22T01:32:55;24.33;;;4.90;;
11473;SDS011;5793;52.238;13.438;2023-02-22T01:35:24;20.17;;;5.23;;
11473;SDS011;5793;52.238;13.438;2023-02-22T01:37:53;18.57;;;4.93;;
11473;SDS011;5793;52.238;13.438;2023-02-22T01:40:24;16.97;;;4.73;;
11473;SDS011;5793;52.238;13.438;2023-02-22T01:42:56;21.93;;;4.43;;
11473;SDS011;5793;52.238;13.438;2023-02-22T01:48:23;19.50;;;4.33;;
11473;SDS011;5793;52.238;13.438;2023-02-22T01:50:57;13.83;;;3.97;;
11473;SDS011;5793;52.238;13.438;2023-02-22T01:53:29;12.70;;;4.07;;
11473;SDS011;5793;52.238;13.438;2023-02-22T01:56:02;13.17;;;4.60;;
11473;SDS011;5793;52.238;13.438;2023-02-22T01:58:31;20.07;;;5.17;;
11473;SDS011;5793;52.238;13.438;2023-02-22T02:01:01;22.07;;;5.17;;
11473;SDS011;5793;52.238;13.438;2023-02-22T02:03:29;22.63;;;5.30;;
11473;SDS011;5793;52.238;13.438;2023-02-22T02:06:02;18.10;;;4.67;;
11473;SDS011;5793;52.238;13.438;2023-02-22T02:08:34;22.73;;;5.40;;
11473;SDS011;5793;52.238;13.438;2023-02-22T02:11:07;21.13;;;6.00;;
11473;SDS011;5793;52.238;13.438;2023-02-22T02:13:36;22.57;;;5.03;;
11473;SDS011;5793;52.238;13.438;2023-02-22T02:16:04;21.03;;;4.67;;
11473;SDS011;5793;52.238;13.438;2023-02-22T02:18:32;14.80;;;4.03;;
11473;SDS011;5793;52.238;13.438;2023-02-22T02:21:13;25.73;;;4.80;;
11473;SDS011;5793;52.238;13.438;2023-02-22T02:27:16;13.03;;;4.20;;
11473;SDS011;5793;52.238;13.438;2023-02-22T02:33:02;20.07;;;5.83;;
11473;SDS011;5793;52.238;13.438;2023-02-22T02:35:39;18.17;;;4.97;;
11473;SDS011;5793;52.238;13.438;2023-02-22T02:38:17;21.63;;;5.57;;
11473;SDS011;5793;52.238;13.438;2023-02-22T02:40:54;32.90;;;7.90;;
11473;SDS011;5793;52.238;13.438;2023-02-22T02:43:30;22.63;;;6.93;;
11473;SDS011;5793;52.238;13.438;2023-02-22T02:46:04;18.70;;;5.07;;
11473;SDS011;5793;52.238;13.438;2023-02-22T02:48:37;18.33;;;4.83;;
11473;SDS011;5793;52.238;13.438;2023-02-22T02:51:09;15.53;;;5.10;;
11473;SDS011;5793;52.238;13.438;2023-02-22T02:53:41;18.57;;;5.70;;
11473;SDS011;5793;52.238;13.438;2023-02-22T02:56:12;20.93;;;5.27;;
11473;SDS011;5793;52.238;13.438;2023-02-22T02:58:44;22.20;;;5.33;;
11473;SDS011;5793;52.238;13.438;2023-02-22T03:01:18;19.87;;;5.93;;
11473;SDS011;5793;52.238;13.438;2023-02-22T03:04:01;17.30;;;5.97;;
11473;SDS011;5793;52.238;13.438;2023-02-22T03:06:53;18.50;;;5.03;;
11473;SDS011;5793;52.238;13.438;2023-02-22T03:09:45;18.60;;;5.53;;
11473;SDS011;5793;52.238;13.438;2023-02-22T03:12:26;23.30;;;6.40;;
11473;SDS011;5793;52.238;13.438;2023-02-22T03:15:05;17.43;;;6.00;;
11473;SDS011;5793;52.238;13.438;2023-02-22T03:17:42;17.53;;;4.93;;
11473;SDS011;5793;52.238;13.438;2023-02-22T03:20:18;21.03;;;6.40;;
11473;SDS011;5793;52.238;13.438;2023-02-22T03:22:57;18.87;;;6.87;;
11473;SDS011;5793;52.238;13.438;2023-02-22T03:25:31;20.33;;;5.17;;
11473;SDS011;5793;52.238;13.438;2023-02-22T03:28:02;23.50;;;5.80;;
11473;SDS011;5793;52.238;13.438;2023-02-22T03:30:37;16.80;;;5.27;;
11473;SDS011;5793;52.238;13.438;2023-02-22T03:33:09;21.83;;;6.00;;
11473;SDS011;5793;52.238;13.438;2023-02-22T03:35:44;17.77;;;5.30;;
11473;SDS011;5793;52.238;13.438;2023-02-22T03:38:17;22.20;;;6.03;;
11473;SDS011;5793;52.238;13.438;2023-02-22T03:40:48;17.73;;;5.30;;
11473;SDS011;5793;52.238;13.438;2023-02-22T03:43:20;18.50;;;5.70;;
11473;SDS011;5793;52.238;13.438;2023-02-22T03:45:51;16.57;;;5.27;;
11473;SDS011;5793;52.238;13.438;2023-02-22T03:48:21;21.73;;;4.97;;
11473;SDS011;5793;52.238;13.438;2023-02-22T03:50:56;19.43;;;4.53;;
11473;SDS011;5793;52.238;13.438;2023-02-22T03:53:26;18.47;;;5.00;;
11473;SDS011;5793;52.238;13.438;2023-02-22T03:55:55;20.10;;;4.73;;
11473;SDS011;5793;52.238;13.438;2023-02-22T03:58:25;15.67;;;4.67;;
11473;SDS011;5793;52.238;13.438;2023-02-22T04:00:57;19.27;;;4.60;;
11473;SDS011;5793;52.238;13.438;2023-02-22T04:03:25;20.93;;;4.40;;
11473;SDS011;5793;52.238;13.438;2023-02-22T04:05:53;17.30;;;4.93;;
11473;SDS011;5793;52.238;13.438;2023-02-22T04:08:22;18.13;;;4.80;;
11473;SDS011;5793;52.238;13.438;2023-02-22T04:10:50;16.57;;;4.80;;
11473;SDS011;5793;52.238;13.438;2023-02-22T04:13:18;18.30;;;4.27;;
11473;SDS011;5793;52.238;13.438;2023-02-22T04:15:46;14.57;;;4.63;;
11473;SDS011;5793;52.238;13.438;2023-02-22T04:18:14;14.30;;;4.83;;
11473;SDS011;5793;52.238;13.438;2023-02-22T04:20:42;18.90;;;4.83;;
11473;SDS011;5793;52.238;13.438;2023-02-22T04:23:10;13.37;;;4.63;;
11473;SDS011;5793;52.238;13.438;2023-02-22T04:25:39;18.33;;;4.70;;
11473;SDS011;5793;52.238;13.438;2023-02-22T04:28:06;16.33;;;4.40;;
11473;SDS011;5793;52.238;13.438;2023-02-22T04:30:34;15.07;;;4.53;;
11473;SDS011;5793;52.238;13.438;2023-02-22T04:33:02;11.67;;;4.10;;
11473;SDS011;5793;52.238;13.438;2023-02-22T04:35:30;12.60;;;4.17;;
11473;SDS011;5793;52.238;13.438;2023-02-22T04:38:00;15.87;;;4.63;;
11473;SDS011;5793;52.238;13.438;2023-02-22T04:40:29;18.37;;;4.87;;
11473;SDS011;5793;52.238;13.438;2023-02-22T04:42:58;16.07;;;5.03;;
11473;SDS011;5793;52.238;13.438;2023-02-22T04:45:26;15.60;;;3.93;;
11473;SDS011;5793;52.238;13.438;2023-02-22T04:47:54;21.00;;;4.87;;
11473;SDS011;5793;52.238;13.438;2023-02-22T04:50:21;22.88;;;6.70;;
11473;SDS011;5793;52.238;13.438;2023-02-22T04:52:49;20.23;;;5.27;;
11473;SDS011;5793;52.238;13.438;2023-02-22T04:55:17;19.43;;;6.00;;
11473;SDS011;5793;52.238;13.438;2023-02-22T04:57:45;15.30;;;5.20;;
11473;SDS011;5793;52.238;13.438;2023-02-22T05:00:16;23.50;;;5.60;;
11473;SDS011;5793;52.238;13.438;2023-02-22T05:02:46;16.07;;;5.40;;
11473;SDS011;5793;52.238;13.438;2023-02-22T05:05:15;19.17;;;4.97;;
11473;SDS011;5793;52.238;13.438;2023-02-22T05:07:44;16.67;;;4.90;;
11473;SDS011;5793;52.238;13.438;2023-02-22T05:10:12;12.43;;;4.53;;
11473;SDS011;5793;52.238;13.438;2023-02-22T05:12:40;22.80;;;5.00;;
11473;SDS011;5793;52.238;13.438;2023-02-22T05:15:08;19.03;;;4.93;;
11473;SDS011;5793;52.238;13.438;2023-02-22T05:17:38;16.87;;;5.17;;
11473;SDS011;5793;52.238;13.438;2023-02-22T05:20:06;17.83;;;5.10;;
11473;SDS011;5793;52.238;13.438;2023-02-22T05:22:34;15.47;;;4.80;;
11473;SDS011;5793;52.238;13.438;2023-02-22T05:25:02;17.47;;;4.67;;
11473;SDS011;5793;52.238;13.438;2023-02-22T05:27:30;21.03;;;5.23;;
11473;SDS011;5793;52.238;13.438;2023-02-22T05:29:58;16.83;;;5.10;;
11473;SDS011;5793;52.238;13.438;2023-02-22T05:32:25;16.97;;;5.63;;
11473;SDS011;5793;52.238;13.438;2023-02-22T05:34:54;15.70;;;4.50;;
11473;SDS011;5793;52.238;13.438;2023-02-22T05:37:22;21.30;;;5.37;;
11473;SDS011;5793;52.238;13.438;2023-02-22T05:39:50;25.50;;;5.53;;
11473;SDS011;5793;52.238;13.438;2023-02-22T05:42:17;19.00;;;5.47;;
11473;SDS011;5793;52.238;13.438;2023-02-22T05:44:46;19.23;;;5.00;;
11473;SDS011;5793;52.238;13.438;2023-02-22T05:47:14;21.50;;;5.20;;
11473;SDS011;5793;52.238;13.438;2023-02-22T05:49:41;17.47;;;4.97;;
11473;SDS011;5793;52.238;13.438;2023-02-22T05:52:11;15.07;;;4.97;;
11473;SDS011;5793;52.238;13.438;2023-02-22T05:54:38;15.67;;;4.60;;
11473;SDS011;5793;52.238;13.438;2023-02-22T05:57:06;15.63;;;4.60;;
11473;SDS011;5793;52.238;13.438;2023-02-22T05:59:34;15.13;;;4.53;;
11473;SDS011;5793;52.238;13.438;2023-02-22T06:02:01;13.20;;;4.80;;
11473;SDS011;5793;52.238;13.438;2023-02-22T06:04:29;13.27;;;4.30;;
11473;SDS011;5793;52.238;13.438;2023-02-22T06:06:57;22.10;;;5.60;;
11473;SDS011;5793;52.238;13.438;2023-02-22T06:09:26;15.73;;;4.60;;
11473;SDS011;5793;52.238;13.438;2023-02-22T06:11:54;15.03;;;4.57;;
11473;SDS011;5793;52.238;13.438;2023-02-22T06:14:22;24.20;;;5.63;;
11473;SDS011;5793;52.238;13.438;2023-02-22T06:16:51;17.23;;;5.13;;
11473;SDS011;5793;52.238;13.438;2023-02-22T06:19:19;17.37;;;4.93;;
11473;SDS011;5793;52.238;13.438;2023-02-22T06:21:48;13.23;;;4.83;;
11473;SDS011;5793;52.238;13.438;2023-02-22T06:24:16;16.70;;;4.77;;
11473;SDS011;5793;52.238;13.438;2023-02-22T06:26:46;15.77;;;4.83;;
11473;SDS011;5793;52.238;13.438;2023-02-22T06:29:20;12.40;;;4.83;;
11473;SDS011;5793;52.238;13.438;2023-02-22T06:31:48;14.43;;;4.30;;
11473;SDS011;5793;52.238;13.438;2023-02-22T06:34:15;15.33;;;4.67;;
11473;SDS011;5793;52.238;13.438;2023-02-22T06:36:43;13.83;;;3.83;;
11473;SDS011;5793;52.238;13.438;2023-02-22T06:39:13;15.17;;;4.40;;
11473;SDS011;5793;52.238;13.438;2023-02-22T06:41:41;18.93;;;4.53;;
11473;SDS011;5793;52.238;13.438;2023-02-22T06:44:11;23.07;;;5.03;;
11473;SDS011;5793;52.238;13.438;2023-02-22T06:46:45;16.40;;;5.13;;
11473;SDS011;5793;52.238;13.438;2023-02-22T06:49:13;17.83;;;5.33;;
11473;SDS011;5793;52.238;13.438;2023-02-22T06:51:41;17.50;;;5.50;;
11473;SDS011;5793;52.238;13.438;2023-02-22T06:54:09;17.53;;;4.80;;
11473;SDS011;5793;52.238;13.438;2023-02-22T06:56:37;28.00;;;5.90;;
11473;SDS011;5793;52.238;13.438;2023-02-22T06:59:04;23.53;;;4.93;;
11473;SDS011;5793;52.238;13.438;2023-02-22T07:01:34;35.27;;;8.73;;
11473;SDS011;5793;52.238;13.438;2023-02-22T07:04:02;26.67;;;9.27;;
11473;SDS011;5793;52.238;13.438;2023-02-22T07:06:30;23.87;;;9.00;;
11473;SDS011;5793;52.238;13.438;2023-02-22T07:08:58;21.60;;;7.73;;
11473;SDS011;5793;52.238;13.438;2023-02-22T07:11:26;18.43;;;8.27;;
11473;SDS011;5793;52.238;13.438;2023-02-22T07:13:54;21.93;;;7.63;;
11473;SDS011;5793;52.238;13.438;2023-02-22T07:16:21;17.50;;;8.00;;
11473;SDS011;5793;52.238;13.438;2023-02-22T07:18:51;25.53;;;10.43;;
11473;SDS011;5793;52.238;13.438;2023-02-22T07:21:18;28.00;;;10.17;;
11473;SDS011;5793;52.238;13.438;2023-02-22T07:23:50;26.57;;;9.80;;
11473;SDS011;5793;52.238;13.438;2023-02-22T07:26:19;19.87;;;8.40;;
11473;SDS011;5793;52.238;13.438;2023-02-22T07:28:47;21.47;;;8.30;;
11473;SDS011;5793;52.238;13.438;2023-02-22T07:31:15;25.90;;;7.80;;
11473;SDS011;5793;52.238;13.438;2023-02-22T07:33:44;22.47;;;7.33;;
11473;SDS011;5793;52.238;13.438;2023-02-22T07:36:14;23.33;;;5.97;;
11473;SDS011;5793;52.238;13.438;2023-02-22T07:38:43;16.90;;;6.00;;
11473;SDS011;5793;52.238;13.438;2023-02-22T07:41:11;17.50;;;6.10;;
11473;SDS011;5793;52.238;13.438;2023-02-22T07:43:39;20.77;;;8.23;;
11473;SDS011;5793;52.238;13.438;2023-02-22T07:46:06;22.57;;;8.90;;
11473;SDS011;5793;52.238;13.438;2023-02-22T07:48:34;30.10;;;13.10;;
11473;SDS011;5793;52.238;13.438;2023-02-22T07:51:02;31.00;;;14.67;;
11473;SDS011;5793;52.238;13.438;2023-02-22T07:53:32;30.23;;;13.47;;
11473;SDS011;5793;52.238;13.438;2023-02-22T07:56:01;23.90;;;12.23;;
11473;SDS011;5793;52.238;13.438;2023-02-22T07:58:31;23.07;;;10.57;;
11473;SDS011;5793;52.238;13.438;2023-02-22T08:01:00;20.87;;;7.37;;
11473;SDS011;5793;52.238;13.438;2023-02-22T08:03:29;22.13;;;7.93;;
11473;SDS011;5793;52.238;13.438;2023-02-22T08:05:59;23.27;;;6.10;;
11473;SDS011;5793;52.238;13.438;2023-02-22T08:08:28;16.87;;;5.60;;
11473;SDS011;5793;52.238;13.438;2023-02-22T08:10:57;17.27;;;4.90;;
11473;SDS011;5793;52.238;13.438;2023-02-22T08:13:25;16.93;;;5.50;;
11473;SDS011;5793;52.238;13.438;2023-02-22T08:15:53;18.33;;;5.87;;
11473;SDS011;5793;52.238;13.438;2023-02-22T08:18:21;19.87;;;6.10;;
11473;SDS011;5793;52.238;13.438;2023-02-22T08:20:50;17.17;;;5.43;;
11473;SDS011;5793;52.238;13.438;2023-02-22T08:23:20;19.07;;;5.00;;
11473;SDS011;5793;52.238;13.438;2023-02-22T08:25:50;16.67;;;4.40;;
11473;SDS011;5793;52.238;13.438;2023-02-22T08:28:20;19.63;;;5.20;;
11473;SDS011;5793;52.238;13.438;2023-02-22T08:30:50;16.40;;;4.30;;
11473;SDS011;5793;52.238;13.438;2023-02-22T08:33:19;17.37;;;4.30;;
11473;SDS011;5793;52.238;13.438;2023-02-22T08:35:47;18.27;;;4.63;;
11473;SDS011;5793;52.238;13.438;2023-02-22T08:38:16;19.77;;;5.07;;
11473;SDS011;5793;52.238;13.438;2023-02-22T08:40:47;20.07;;;4.77;;
11473;SDS011;5793;52.238;13.438;2023-02-22T08:43:16;19.03;;;4.90;;
11473;SDS011;5793;52.238;13.438;2023-02-22T08:45:46;21.10;;;4.80;;
11473;SDS011;5793;52.238;13.438;2023-02-22T08:48:14;20.47;;;5.83;;
11473;SDS011;5793;52.238;13.438;2023-02-22T08:50:43;17.67;;;5.10;;
11473;SDS011;5793;52.238;13.438;2023-02-22T08:53:12;21.13;;;5.50;;
11473;SDS011;5793;52.238;13.438;2023-02-22T08:55:41;20.87;;;6.10;;
11473;SDS011;5793;52.238;13.438;2023-02-22T08:58:09;26.90;;;7.57;;
11473;SDS011;5793;52.238;13.438;2023-02-22T09:00:38;21.27;;;5.90;;
11473;SDS011;5793;52.238;13.438;2023-02-22T09:03:09;20.90;;;5.63;;
11473;SDS011;5793;52.238;13.438;2023-02-22T09:05:39;20.20;;;5.60;;
11473;SDS011;5793;52.238;13.438;2023-02-22T09:08:07;17.83;;;5.20;;
11473;SDS011;5793;52.238;13.438;2023-02-22T09:10:35;19.13;;;5.40;;
11473;SDS011;5793;52.238;13.438;2023-02-22T09:13:03;21.93;;;5.47;;
11473;SDS011;5793;52.238;13.438;2023-02-22T09:15:32;14.20;;;4.97;;
11473;SDS011;5793;52.238;13.438;2023-02-22T09:18:01;21.90;;;5.27;;
11473;SDS011;5793;52.238;13.438;2023-02-22T09:20:31;18.77;;;4.93;;
11473;SDS011;5793;52.238;13.438;2023-02-22T09:23:01;22.47;;;5.93;;
11473;SDS011;5793;52.238;13.438;2023-02-22T09:25:30;21.70;;;5.77;;
11473;SDS011;5793;52.238;13.438;2023-02-22T09:27:59;18.97;;;5.77;;
11473;SDS011;5793;52.238;13.438;2023-02-22T09:30:28;15.70;;;5.47;;
11473;SDS011;5793;52.238;13.438;2023-02-22T09:32:59;16.47;;;5.60;;
11473;SDS011;5793;52.238;13.438;2023-02-22T09:35:28;17.43;;;5.20;;
11473;SDS011;5793;52.238;13.438;2023-02-22T09:37:58;17.53;;;5.93;;
11473;SDS011;5793;52.238;13.438;2023-02-22T09:40:27;22.23;;;5.80;;
11473;SDS011;5793;52.238;13.438;2023-02-22T09:43:10;19.37;;;6.00;;
11473;SDS011;5793;52.238;13.438;2023-02-22T09:45:49;21.23;;;6.10;;
11473;SDS011;5793;52.238;13.438;2023-02-22T09:48:28;17.83;;;5.73;;
11473;SDS011;5793;52.238;13.438;2023-02-22T09:50:57;11.97;;;5.30;;
11473;SDS011;5793;52.238;13.438;2023-02-22T09:53:30;22.27;;;6.03;;
11473;SDS011;5793;52.238;13.438;2023-02-22T09:56:03;24.13;;;5.77;;
11473;SDS011;5793;52.238;13.438;2023-02-22T09:58:37;21.37;;;5.20;;
11473;SDS011;5793;52.238;13.438;2023-02-22T10:01:13;18.70;;;4.97;;
11473;SDS011;5793;52.238;13.438;2023-02-22T10:03:50;19.07;;;4.70;;
11473;SDS011;5793;52.238;13.438;2023-02-22T10:06:22;15.50;;;4.80;;
11473;SDS011;5793;52.238;13.438;2023-02-22T10:08:52;19.27;;;4.10;;
11473;SDS011;5793;52.238;13.438;2023-02-22T10:11:30;22.03;;;4.57;;
11473;SDS011;5793;52.238;13.438;2023-02-22T10:14:12;17.87;;;4.73;;
11473;SDS011;5793;52.238;13.438;2023-02-22T10:16:59;14.73;;;3.93;;
11473;SDS011;5793;52.238;13.438;2023-02-22T10:19:36;13.23;;;3.57;;
11473;SDS011;5793;52.238;13.438;2023-02-22T10:22:14;17.10;;;4.17;;
11473;SDS011;5793;52.238;13.438;2023-02-22T10:24:55;17.20;;;4.10;;
11473;SDS011;5793;52.238;13.438;2023-02-22T10:27:27;18.63;;;3.83;;
11473;SDS011;5793;52.238;13.438;2023-02-22T10:29:59;13.10;;;3.87;;
11473;SDS011;5793;52.238;13.438;2023-02-22T10:32:49;15.83;;;4.23;;
11473;SDS011;5793;52.238;13.438;2023-02-22T10:35:23;17.17;;;4.07;;
11473;SDS011;5793;52.238;13.438;2023-02-22T10:37:53;18.40;;;3.93;;
11473;SDS011;5793;52.238;13.438;2023-02-22T10:40:26;18.33;;;4.23;;
11473;SDS011;5793;52.238;13.438;2023-02-22T10:43:01;17.83;;;4.00;;
11473;SDS011;5793;52.238;13.438;2023-02-22T10:45:30;15.80;;;3.73;;
11473;SDS011;5793;52.238;13.438;2023-02-22T10:48:03;12.80;;;3.97;;
11473;SDS011;5793;52.238;13.438;2023-02-22T10:50:37;16.80;;;4.17;;
11473;SDS011;5793;52.238;13.438;2023-02-22T10:53:06;12.10;;;3.30;;
11473;SDS011;5793;52.238;13.438;2023-02-22T10:55:36;17.77;;;4.07;;
11473;SDS011;5793;52.238;13.438;2023-02-22T10:58:44;16.20;;;4.37;;
11473;SDS011;5793;52.238;13.438;2023-02-22T11:01:19;13.77;;;3.50;;
11473;SDS011;5793;52.238;13.438;2023-02-22T11:04:02;15.07;;;3.60;;
11473;SDS011;5793;52.238;13.438;2023-02-22T11:06:35;15.70;;;4.53;;
11473;SDS011;5793;52.238;13.438;2023-02-22T11:09:06;13.30;;;3.40;;
11473;SDS011;5793;52.238;13.438;2023-02-22T11:11:41;17.17;;;4.00;;
11473;SDS011;5793;52.238;13.438;2023-02-22T11:14:11;16.97;;;3.90;;
11473;SDS011;5793;52.238;13.438;2023-02-22T11:16:41;17.93;;;4.20;;
11473;SDS011;5793;52.238;13.438;2023-02-22T11:19:17;13.57;;;3.87;;
11473;SDS011;5793;52.238;13.438;2023-02-22T11:21:49;17.13;;;4.13;;
11473;SDS011;5793;52.238;13.438;2023-02-22T11:24:20;14.07;;;3.63;;
11473;SDS011;5793;52.238;13.438;2023-02-22T11:27:00;14.13;;;3.87;;
11473;SDS011;5793;52.238;13.438;2023-02-22T11:29:32;16.27;;;4.07;;
11473;SDS011;5793;52.238;13.438;2023-02-22T11:32:03;18.70;;;4.23;;
11473;SDS011;5793;52.238;13.438;2023-02-22T11:34:40;13.67;;;3.77;;
11473;SDS011;5793;52.238;13.438;2023-02-22T11:37:26;17.83;;;4.57;;
11473;SDS011;5793;52.238;13.438;2023-02-22T11:40:04;15.47;;;3.83;;
11473;SDS011;5793;52.238;13.438;2023-02-22T11:42:39;15.13;;;3.43;;
11473;SDS011;5793;52.238;13.438;2023-02-22T11:45:07;20.90;;;4.67;;
11473;SDS011;5793;52.238;13.438;2023-02-22T11:47:45;13.30;;;3.53;;
11473;SDS011;5793;52.238;13.438;2023-02-22T11:50:23;16.37;;;3.73;;
11473;SDS011;5793;52.238;13.438;2023-02-22T11:53:00;15.30;;;3.70;;
11473;SDS011;5793;52.238;13.438;2023-02-22T11:55:35;18.67;;;4.00;;
11473;SDS011;5793;52.238;13.438;2023-02-22T11:58:17;12.63;;;3.33;;
11473;SDS011;5793;52.238;13.438;2023-02-22T12:00:55;17.47;;;4.03;;
11473;SDS011;5793;52.238;13.438;2023-02-22T12:03:54;14.73;;;3.57;;
11473;SDS011;5793;52.238;13.438;2023-02-22T12:06:43;12.23;;;3.70;;
11473;SDS011;5793;52.238;13.438;2023-02-22T12:09:17;13.50;;;4.20;;
11473;SDS011;5793;52.238;13.438;2023-02-22T12:11:52;15.17;;;3.93;;
11473;SDS011;5793;52.238;13.438;2023-02-22T12:14:33;12.10;;;3.77;;
11473;SDS011;5793;52.238;13.438;2023-02-22T12:17:17;15.47;;;4.63;;
11473;SDS011;5793;52.238;13.438;2023-02-22T12:19:52;16.27;;;4.17;;
11473;SDS011;5793;52.238;13.438;2023-02-22T12:22:27;13.87;;;3.97;;
11473;SDS011;5793;52.238;13.438;2023-02-22T12:25:01;12.80;;;3.37;;
11473;SDS011;5793;52.238;13.438;2023-02-22T12:27:35;17.57;;;4.00;;
11473;SDS011;5793;52.238;13.438;2023-02-22T12:30:10;13.93;;;3.97;;
11473;SDS011;5793;52.238;13.438;2023-02-22T12:32:43;17.77;;;3.93;;
11473;SDS011;5793;52.238;13.438;2023-02-22T12:35:18;14.77;;;3.70;;
11473;SDS011;5793;52.238;13.438;2023-02-22T12:37:51;11.80;;;3.47;;
11473;SDS011;5793;52.238;13.438;2023-02-22T12:40:32;17.13;;;4.03;;
11473;SDS011;5793;52.238;13.438;2023-02-22T12:43:05;15.00;;;3.30;;
11473;SDS011;5793;52.238;13.438;2023-02-22T12:45:44;16.40;;;3.90;;
11473;SDS011;5793;52.238;13.438;2023-02-22T12:48:19;16.13;;;3.80;;
11473;SDS011;5793;52.238;13.438;2023-02-22T12:50:53;15.13;;;4.10;;
11473;SDS011;5793;52.238;13.438;2023-02-22T12:53:24;14.07;;;4.07;;
11473;SDS011;5793;52.238;13.438;2023-02-22T12:55:57;16.67;;;4.23;;
11473;SDS011;5793;52.238;13.438;2023-02-22T12:58:31;15.77;;;4.37;;
11473;SDS011;5793;52.238;13.438;2023-02-22T13:01:06;12.77;;;3.57;;
11473;SDS011;5793;52.238;13.438;2023-02-22T13:03:40;12.90;;;3.83;;
11473;SDS011;5793;52.238;13.438;2023-02-22T13:06:19;14.47;;;3.80;;
11473;SDS011;5793;52.238;13.438;2023-02-22T13:08:57;13.20;;;3.70;;
11473;SDS011;5793;52.238;13.438;2023-02-22T13:11:35;13.17;;;3.20;;
11473;SDS011;5793;52.238;13.438;2023-02-22T13:14:13;15.37;;;4.20;;
11473;SDS011;5793;52.238;13.438;2023-02-22T13:16:52;20.23;;;4.03;;
11473;SDS011;5793;52.238;13.438;2023-02-22T13:19:29;11.80;;;3.60;;
11473;SDS011;5793;52.238;13.438;2023-02-22T13:22:05;11.23;;;2.93;;
11473;SDS011;5793;52.238;13.438;2023-02-22T13:24:38;12.00;;;3.17;;
11473;SDS011;5793;52.238;13.438;2023-02-22T13:27:15;12.67;;;2.87;;
11473;SDS011;5793;52.238;13.438;2023-02-22T13:29:47;14.97;;;3.60;;
11473;SDS011;5793;52.238;13.438;2023-02-22T13:32:25;14.23;;;4.17;;
11473;SDS011;5793;52.238;13.438;2023-02-22T13:35:07;11.90;;;3.20;;
11473;SDS011;5793;52.238;13.438;2023-02-22T13:38:14;14.57;;;3.87;;
11473;SDS011;5793;52.238;13.438;2023-02-22T13:41:13;14.40;;;3.30;;
11473;SDS011;5793;52.238;13.438;2023-02-22T13:46:53;16.03;;;3.53;;
11473;SDS011;5793;52.238;13.438;2023-02-22T13:50:00;26.13;;;4.63;;
11473;SDS011;5793;52.238;13.438;2023-02-22T13:52:46;16.00;;;4.13;;
11473;SDS011;5793;52.238;13.438;2023-02-22T13:55:18;10.97;;;2.93;;
11473;SDS011;5793;52.238;13.438;2023-02-22T13:57:49;13.17;;;3.33;;
11473;SDS011;5793;52.238;13.438;2023-02-22T14:00:38;15.57;;;3.83;;
11473;SDS011;5793;52.238;13.438;2023-02-22T14:06:03;18.27;;;5.30;;
11473;SDS011;5793;52.238;13.438;2023-02-22T14:08:39;12.97;;;3.97;;
11473;SDS011;5793;52.238;13.438;2023-02-22T14:14:17;17.27;;;3.60;;
11473;SDS011;5793;52.238;13.438;2023-02-22T14:17:14;11.63;;;3.33;;
11473;SDS011;5793;52.238;13.438;2023-02-22T14:20:02;13.33;;;3.30;;
11473;SDS011;5793;52.238;13.438;2023-02-22T14:22:41;17.23;;;3.17;;
11473;SDS011;5793;52.238;13.438;2023-02-22T14:25:30;11.50;;;3.43;;
11473;SDS011;5793;52.238;13.438;2023-02-22T14:28:03;14.40;;;3.60;;
11473;SDS011;5793;52.238;13.438;2023-02-22T14:30:33;17.83;;;4.33;;
11473;SDS011;5793;52.238;13.438;2023-02-22T14:33:02;9.10;;;3.17;;
11473;SDS011;5793;52.238;13.438;2023-02-22T14:35:50;18.57;;;4.10;;
11473;SDS011;5793;52.238;13.438;2023-02-22T14:38:19;16.97;;;3.40;;
11473;SDS011;5793;52.238;13.438;2023-02-22T14:40:47;12.90;;;3.23;;
11473;SDS011;5793;52.238;13.438;2023-02-22T14:43:18;10.77;;;3.23;;
11473;SDS011;5793;52.238;13.438;2023-02-22T14:45:50;15.03;;;4.20;;
11473;SDS011;5793;52.238;13.438;2023-02-22T14:48:21;15.03;;;4.53;;
11473;SDS011;5793;52.238;13.438;2023-02-22T14:50:55;16.40;;;6.53;;
11473;SDS011;5793;52.238;13.438;2023-02-22T14:53:39;29.73;;;9.43;;
11473;SDS011;5793;52.238;13.438;2023-02-22T14:56:14;28.03;;;7.50;;
11473;SDS011;5793;52.238;13.438;2023-02-22T14:58:48;17.57;;;6.23;;
11473;SDS011;5793;52.238;13.438;2023-02-22T15:01:22;15.73;;;5.73;;
11473;SDS011;5793;52.238;13.438;2023-02-22T15:04:15;11.20;;;4.13;;
11473;SDS011;5793;52.238;13.438;2023-02-22T15:06:44;12.73;;;4.73;;
11473;SDS011;5793;52.238;13.438;2023-02-22T15:09:15;16.50;;;4.17;;
11473;SDS011;5793;52.238;13.438;2023-02-22T15:11:52;12.73;;;4.10;;
11473;SDS011;5793;52.238;13.438;2023-02-22T15:14:22;11.40;;;3.47;;
11473;SDS011;5793;52.238;13.438;2023-02-22T15:16:52;14.43;;;3.87;;
11473;SDS011;5793;52.238;13.438;2023-02-22T15:19:24;11.17;;;3.90;;
11473;SDS011;5793;52.238;13.438;2023-02-22T15:21:54;18.13;;;4.63;;